Time;durP1;ratioP1;P1;durP2;ratioP2;P2;SDS_P1;SDS_P2;PMS_P1;PMS_P2;Temp;Humidity;BMP_temperature;BMP_pressure;BME280_temperature;BME280_humidity;BME280_pressure;Samples;Min_cycle;Max_cycle;Signal;HPM_P1;HPM_P2
2022/10/02 00:00:50;;;;;;;;;;;12.20;99.90;;;;;;5009262;28;20357;-64
2022/10/02 00:03:27;;;;;;;;;;;12.20;99.90;;;;;;5008888;28;19991;-64
2022/10/02 00:06:02;;;;;;;;;;;12.20;99.90;;;;;;5009004;28;20284;-64
2022/10/02 00:08:31;;;;;;;;;;;12.20;99.90;;;;;;5010070;28;19933;-65
2022/10/02 00:11:15;;;;;;;;;;;12.10;99.90;;;;;;5009254;28;19925;-64
2022/10/02 00:14:01;;;;;;;;;;;12.10;99.90;;;;;;5010150;28;20394;-65
2022/10/02 00:16:36;;;;;;;;;;;12.00;99.90;;;;;;5008589;28;20038;-65
2022/10/02 00:19:02;;;;;;;;;;;12.00;99.90;;;;;;5008860;28;19948;-65
2022/10/02 00:21:44;;;;;;;;;;;11.90;99.90;;;;;;5008685;28;20392;-65
2022/10/02 00:24:16;;;;;;;;;;;11.90;99.90;;;;;;5008689;28;19932;-65
2022/10/02 00:26:55;;;;;;;;;;;11.90;99.90;;;;;;5008940;28;19925;-65
2022/10/02 00:29:26;;;;;;;;;;;11.90;99.90;;;;;;5008625;28;20011;-64
2022/10/02 00:31:58;;;;;;;;;;;11.80;99.90;;;;;;5008954;28;20287;-65
2022/10/02 00:34:26;;;;;;;;;;;11.80;99.90;;;;;;5009258;28;20016;-65
2022/10/02 00:37:11;;;;;;;;;;;11.80;99.90;;;;;;5009698;28;20367;-65
2022/10/02 00:39:44;;;;;;;;;;;11.80;99.90;;;;;;5008604;28;19925;-64
2022/10/02 00:42:13;;;;;;;;;;;11.80;99.90;;;;;;5008100;28;19933;-65
2022/10/02 00:44:38;;;;;;;;;;;11.70;99.90;;;;;;5008365;28;19974;-64
2022/10/02 00:47:12;;;;;;;;;;;11.70;99.90;;;;;;4992238;28;19926;-64
2022/10/02 00:49:37;;;;;;;;;;;11.70;99.90;;;;;;5008650;28;19930;-64
2022/10/02 00:52:21;;;;;;;;;;;11.70;99.90;;;;;;5008744;28;19926;-64
2022/10/02 00:55:01;;;;;;;;;;;11.60;99.90;;;;;;5008762;28;20399;-64
2022/10/02 00:57:27;;;;;;;;;;;11.60;99.90;;;;;;5008682;28;20013;-65
2022/10/02 01:00:01;;;;;;;;;;;11.60;99.90;;;;;;5009531;28;19994;-64
2022/10/02 01:02:30;;;;;;;;;;;11.60;99.90;;;;;;5007723;28;19936;-64
2022/10/02 01:04:57;;;;;;;;;;;11.50;99.90;;;;;;5008182;28;19933;-65
2022/10/02 01:07:23;;;;;;;;;;;11.50;99.90;;;;;;5008868;28;19926;-64
2022/10/02 01:09:49;;;;;;;;;;;11.60;99.90;;;;;;5009156;28;19925;-64
2022/10/02 01:12:14;;;;;;;;;;;11.50;99.90;;;;;;5008010;28;19933;-63
2022/10/02 01:14:40;;;;;;;;;;;11.50;99.90;;;;;;5009354;28;19978;-65
2022/10/02 01:17:18;;;;;;;;;;;11.40;99.90;;;;;;4991646;28;20053;-65
2022/10/02 01:19:43;;;;;;;;;;;11.40;99.90;;;;;;5008667;28;19925;-65
2022/10/02 01:22:16;;;;;;;;;;;11.40;99.90;;;;;;5007926;28;20059;-65
2022/10/02 01:24:49;;;;;;;;;;;11.40;99.90;;;;;;5009279;28;20012;-64
2022/10/02 01:27:14;;;;;;;;;;;11.40;99.90;;;;;;5007908;28;19926;-66
2022/10/02 01:29:41;;;;;;;;;;;11.40;99.90;;;;;;5007727;28;19936;-65
2022/10/02 01:32:07;;;;;;;;;;;11.40;99.90;;;;;;5007859;28;19936;-65
2022/10/02 01:34:33;;;;;;;;;;;11.40;99.90;;;;;;5007582;28;19926;-64
2022/10/02 01:36:58;;;;;;;;;;;11.40;99.90;;;;;;5007772;28;20000;-64
2022/10/02 01:39:25;;;;;;;;;;;11.40;99.90;;;;;;4991400;28;19941;-64
2022/10/02 01:41:50;;;;;;;;;;;11.40;99.90;;;;;;5007607;28;19945;-64
2022/10/02 01:44:16;;;;;;;;;;;11.40;99.90;;;;;;5008941;28;19929;-64
2022/10/02 01:46:45;;;;;;;;;;;11.40;99.90;;;;;;5007753;28;19933;-65
2022/10/02 01:49:18;;;;;;;;;;;11.40;99.90;;;;;;5008858;28;19932;-65
2022/10/02 01:51:52;;;;;;;;;;;11.30;99.90;;;;;;5007381;28;19939;-65
2022/10/02 01:54:27;;;;;;;;;;;11.40;99.90;;;;;;5008973;28;19936;-66
2022/10/02 01:57:06;;;;;;;;;;;11.40;99.90;;;;;;5010891;28;19952;-65
2022/10/02 01:59:47;;;;;;;;;;;11.40;99.90;;;;;;5012077;28;20298;-65
2022/10/02 02:02:17;;;;;;;;;;;11.30;99.90;;;;;;5012208;28;20292;-65
2022/10/02 02:04:49;;;;;;;;;;;11.30;99.90;;;;;;5010556;28;20333;-65
2022/10/02 02:07:24;;;;;;;;;;;11.30;99.90;;;;;;5011933;28;19973;-65
2022/10/02 02:10:03;;;;;;;;;;;11.30;99.90;;;;;;5009866;28;19972;-69
2022/10/02 02:12:37;;;;;;;;;;;11.30;99.90;;;;;;5011827;28;19996;-68
2022/10/02 02:15:06;;;;;;;;;;;11.30;99.90;;;;;;4994344;28;19933;-68
2022/10/02 02:17:31;;;;;;;;;;;11.30;99.90;;;;;;5010246;28;19925;-68
2022/10/02 02:20:02;;;;;;;;;;;11.30;99.90;;;;;;5010094;28;19979;-69
2022/10/02 02:22:29;;;;;;;;;;;11.30;99.90;;;;;;5010526;28;19930;-68
2022/10/02 02:24:55;;;;;;;;;;;11.30;99.90;;;;;;5011653;28;19932;-69
2022/10/02 02:27:23;;;;;;;;;;;11.30;99.90;;;;;;4994202;28;20024;-68
2022/10/02 02:29:49;;;;;;;;;;;11.30;99.90;;;;;;5011572;28;19926;-68
2022/10/02 02:32:17;;;;;;;;;;;11.30;99.90;;;;;;5011514;28;19926;-69
2022/10/02 02:35:06;;;;;;;;;;;11.30;99.90;;;;;;5010027;28;19978;-68
2022/10/02 02:37:33;;;;;;;;;;;11.30;99.90;;;;;;5012077;28;19926;-68
2022/10/02 02:40:05;;;;;;;;;;;11.30;99.90;;;;;;5011595;28;20327;-68
2022/10/02 02:42:32;;;;;;;;;;;11.30;99.90;;;;;;5009493;28;20463;-68
2022/10/02 02:45:01;;;;;;;;;;;11.30;99.90;;;;;;5010282;28;19933;-68
2022/10/02 02:47:39;;;;;;;;;;;11.30;99.90;;;;;;5010297;28;20202;-69
2022/10/02 02:50:04;;;;;;;;;;;11.30;99.90;;;;;;5011230;28;19935;-68
2022/10/02 02:52:34;;;;;;;;;;;11.40;99.90;;;;;;5010013;28;20415;-68
2022/10/02 02:55:04;;;;;;;;;;;11.40;99.90;;;;;;4993926;28;20016;-68
2022/10/02 02:57:36;;;;;;;;;;;11.40;99.90;;;;;;5009634;28;19932;-68
2022/10/02 03:00:03;;;;;;;;;;;11.50;99.90;;;;;;5009972;28;20021;-68
2022/10/02 03:02:29;;;;;;;;;;;11.50;99.90;;;;;;5009880;28;19974;-69
2022/10/02 03:04:55;;;;;;;;;;;11.50;99.90;;;;;;5009115;28;19929;-69
2022/10/02 03:07:20;;;;;;;;;;;11.50;99.90;;;;;;5009652;28;19936;-68
2022/10/02 03:10:06;;;;;;;;;;;11.60;99.90;;;;;;5009871;28;19925;-69
2022/10/02 03:12:58;;;;;;;;;;;11.60;99.90;;;;;;5013599;28;20036;-69
2022/10/02 03:15:28;;;;;;;;;;;11.60;99.90;;;;;;4997591;28;19926;-69
2022/10/02 03:17:54;;;;;;;;;;;11.60;99.90;;;;;;5009390;28;19972;-68
2022/10/02 03:20:23;;;;;;;;;;;11.60;99.90;;;;;;4993370;28;20395;-69
2022/10/02 03:23:07;;;;;;;;;;;11.60;99.90;;;;;;4992270;28;19925;-68
2022/10/02 03:25:40;;;;;;;;;;;11.60;99.90;;;;;;5009411;28;20021;-69
2022/10/02 03:28:28;;;;;;;;;;;11.60;99.90;;;;;;5009819;28;19932;-68
2022/10/02 03:30:55;;;;;;;;;;;11.60;99.90;;;;;;4993053;28;20032;-68
2022/10/02 03:33:22;;;;;;;;;;;11.60;99.90;;;;;;5009395;28;19936;-69
2022/10/02 03:35:49;;;;;;;;;;;11.60;99.90;;;;;;5010103;28;19984;-68
2022/10/02 03:38:15;;;;;;;;;;;11.60;99.90;;;;;;5009692;28;19949;-68
2022/10/02 03:40:40;;;;;;;;;;;11.60;99.90;;;;;;5010010;28;20388;-68
2022/10/02 03:43:06;;;;;;;;;;;11.60;99.90;;;;;;5009153;28;19932;-68
2022/10/02 03:45:32;;;;;;;;;;;11.60;99.90;;;;;;5009435;28;20379;-70
2022/10/02 03:47:57;;;;;;;;;;;11.60;99.90;;;;;;5009098;28;20368;-69
2022/10/02 03:50:23;;;;;;;;;;;11.60;99.90;;;;;;5008937;28;19932;-69
2022/10/02 03:52:50;;;;;;;;;;;11.60;99.90;;;;;;5008912;28;19929;-68
2022/10/02 03:55:32;;;;;;;;;;;11.60;99.90;;;;;;5009139;28;19921;-69
2022/10/02 03:57:58;;;;;;;;;;;11.60;99.90;;;;;;5009767;28;20206;-68
2022/10/02 04:00:35;;;;;;;;;;;11.60;99.90;;;;;;5008994;28;19971;-68
2022/10/02 04:03:06;;;;;;;;;;;11.60;99.90;;;;;;4992596;28;19932;-67
2022/10/02 04:05:38;;;;;;;;;;;11.70;99.90;;;;;;5008733;28;19929;-67
2022/10/02 04:08:24;;;;;;;;;;;11.60;99.90;;;;;;5009069;28;19926;-68
2022/10/02 04:10:52;;;;;;;;;;;11.70;99.90;;;;;;5008195;28;19925;-68
2022/10/02 04:13:25;;;;;;;;;;;11.60;99.90;;;;;;5008870;28;20287;-68
2022/10/02 04:16:06;;;;;;;;;;;11.60;99.90;;;;;;5008193;28;20292;-68
2022/10/02 04:18:37;;;;;;;;;;;11.50;99.90;;;;;;5008927;28;19940;-68
2022/10/02 04:21:16;;;;;;;;;;;11.60;99.90;;;;;;5009544;28;19929;-68
2022/10/02 04:23:46;;;;;;;;;;;11.60;99.90;;;;;;5008408;28;19926;-67
2022/10/02 04:26:19;;;;;;;;;;;11.50;99.90;;;;;;5009623;28;19925;-67
2022/10/02 04:28:49;;;;;;;;;;;11.50;99.90;;;;;;5009638;28;20141;-68
2022/10/02 04:31:14;;;;;;;;;;;11.50;99.90;;;;;;4992431;28;20033;-68
2022/10/02 04:33:40;;;;;;;;;;;11.50;99.90;;;;;;4992512;28;19929;-68
2022/10/02 04:36:10;;;;;;;;;;;11.50;99.90;;;;;;4991958;28;20287;-68
2022/10/02 04:38:54;;;;;;;;;;;11.50;99.90;;;;;;5008400;28;20429;-68
2022/10/02 04:41:23;;;;;;;;;;;11.40;99.90;;;;;;5007943;28;20344;-68
2022/10/02 04:44:02;;;;;;;;;;;11.50;99.90;;;;;;5009243;28;19988;-68
2022/10/02 04:46:43;;;;;;;;;;;11.40;99.90;;;;;;5009555;28;19933;-68
2022/10/02 04:49:47;;;;;;;;;;;11.40;99.90;;;;;;5008444;28;19925;-67
2022/10/02 04:52:16;;;;;;;;;;;11.40;99.90;;;;;;5013163;28;19933;-68
2022/10/02 04:54:59;;;;;;;;;;;11.40;99.90;;;;;;5029246;28;19975;-68
2022/10/02 04:57:34;;;;;;;;;;;11.40;99.90;;;;;;5000186;28;19976;-68
2022/10/02 05:00:11;;;;;;;;;;;11.40;99.90;;;;;;5008996;28;19989;-68
2022/10/02 05:02:40;;;;;;;;;;;11.40;99.90;;;;;;4991979;28;19973;-68
2022/10/02 05:05:05;;;;;;;;;;;11.40;99.90;;;;;;5007716;28;19929;-67
2022/10/02 05:07:31;;;;;;;;;;;11.40;99.90;;;;;;5008199;28;20041;-68
2022/10/02 05:10:00;;;;;;;;;;;11.40;99.90;;;;;;5007992;28;20398;-68
2022/10/02 05:12:26;;;;;;;;;;;11.40;99.90;;;;;;5008299;28;19972;-68
2022/10/02 05:15:03;;;;;;;;;;;11.40;99.90;;;;;;5007984;28;20396;-68
2022/10/02 05:17:49;;;;;;;;;;;11.40;99.90;;;;;;5009216;28;19931;-68
2022/10/02 05:20:31;;;;;;;;;;;11.30;99.90;;;;;;5008130;28;19925;-68
2022/10/02 05:22:59;;;;;;;;;;;11.30;99.90;;;;;;5007950;28;20287;-68
2022/10/02 05:25:25;;;;;;;;;;;11.30;99.90;;;;;;5008140;28;19926;-68
2022/10/02 05:28:17;;;;;;;;;;;11.20;99.90;;;;;;5007529;28;19979;-68
2022/10/02 05:30:45;;;;;;;;;;;11.20;99.90;;;;;;5019232;28;19932;-68
2022/10/02 05:33:17;;;;;;;;;;;11.20;99.90;;;;;;5010891;28;20330;-68
2022/10/02 05:35:52;;;;;;;;;;;11.20;99.90;;;;;;4994762;28;19925;-70
2022/10/02 05:38:33;;;;;;;;;;;11.20;99.90;;;;;;5011215;28;19998;-68
2022/10/02 05:41:17;;;;;;;;;;;11.10;99.90;;;;;;5010705;28;20369;-68
2022/10/02 05:44:05;;;;;;;;;;;11.10;99.90;;;;;;5011338;28;19926;-68
2022/10/02 05:46:34;;;;;;;;;;;11.10;99.90;;;;;;4994725;28;19949;-68
2022/10/02 05:49:17;;;;;;;;;;;11.10;99.90;;;;;;4994655;28;19929;-68
2022/10/02 05:51:56;;;;;;;;;;;11.00;99.90;;;;;;4994820;28;20324;-68
2022/10/02 05:54:22;;;;;;;;;;;11.00;99.90;;;;;;5010828;28;20225;-68
2022/10/02 05:56:55;;;;;;;;;;;11.00;99.90;;;;;;5010950;28;19932;-69
2022/10/02 05:59:20;;;;;;;;;;;11.00;99.90;;;;;;5012089;28;19925;-69
2022/10/02 06:01:48;;;;;;;;;;;10.90;99.90;;;;;;4994797;28;20049;-68
2022/10/02 06:04:13;;;;;;;;;;;11.00;99.90;;;;;;4994388;28;19965;-69
2022/10/02 06:06:53;;;;;;;;;;;10.90;99.90;;;;;;5010988;28;19972;-69
2022/10/02 06:09:23;;;;;;;;;;;10.90;99.90;;;;;;5010408;28;19926;-68
2022/10/02 06:11:51;;;;;;;;;;;11.00;99.90;;;;;;5010597;28;19991;-68
2022/10/02 06:14:26;;;;;;;;;;;11.00;99.90;;;;;;5011545;28;19973;-68
2022/10/02 06:17:15;;;;;;;;;;;11.00;99.90;;;;;;5010432;28;19925;-69
2022/10/02 06:19:50;;;;;;;;;;;11.00;99.90;;;;;;5013002;28;19940;-69
2022/10/02 06:22:20;;;;;;;;;;;11.10;99.90;;;;;;4993966;28;19933;-68
2022/10/02 06:24:47;;;;;;;;;;;11.10;99.90;;;;;;5010616;28;19933;-67
2022/10/02 06:27:16;;;;;;;;;;;11.10;99.90;;;;;;5011148;28;19986;-70
2022/10/02 06:29:44;;;;;;;;;;;11.10;99.90;;;;;;5010072;28;19925;-68
2022/10/02 06:32:20;;;;;;;;;;;11.20;99.90;;;;;;5011439;28;19932;-69
2022/10/02 06:34:45;;;;;;;;;;;11.20;99.90;;;;;;5010869;28;19925;-68
2022/10/02 06:37:30;;;;;;;;;;;11.20;99.90;;;;;;5009876;28;20453;-69
2022/10/02 06:40:15;;;;;;;;;;;11.30;99.90;;;;;;4994160;28;19930;-67
2022/10/02 06:42:40;;;;;;;;;;;11.40;99.90;;;;;;5010000;28;19926;-68
2022/10/02 06:45:25;;;;;;;;;;;11.40;99.90;;;;;;5010033;28;19932;-69
2022/10/02 06:47:59;;;;;;;;;;;11.50;99.90;;;;;;5010280;28;19947;-69
2022/10/02 06:50:26;;;;;;;;;;;11.50;99.90;;;;;;4993734;28;19926;-68
2022/10/02 06:52:51;;;;;;;;;;;11.60;99.90;;;;;;5010206;28;20348;-67
2022/10/02 06:55:27;;;;;;;;;;;11.80;99.90;;;;;;4993514;28;19990;-68
2022/10/02 06:57:55;;;;;;;;;;;11.90;99.90;;;;;;5010111;28;19975;-67
2022/10/02 07:00:21;;;;;;;;;;;12.00;99.90;;;;;;4993662;28;20015;-68
2022/10/02 07:02:52;;;;;;;;;;;12.10;99.90;;;;;;5009920;28;20026;-68
2022/10/02 07:05:21;;;;;;;;;;;12.20;99.90;;;;;;5009373;28;20024;-68
2022/10/02 07:07:59;;;;;;;;;;;12.20;99.90;;;;;;4993669;28;20334;-68
2022/10/02 07:11:00;;;;;;;;;;;12.30;99.90;;;;;;5010115;28;19932;-68
2022/10/02 07:13:34;;;;;;;;;;;12.30;99.90;;;;;;5030987;28;20024;-70
2022/10/02 07:16:26;;;;;;;;;;;12.30;99.90;;;;;;4996637;28;19926;-69
2022/10/02 07:19:02;;;;;;;;;;;12.30;99.90;;;;;;4993765;28;20438;-70
2022/10/02 07:21:33;;;;;;;;;;;12.30;99.90;;;;;;5009895;28;20276;-68
2022/10/02 07:24:11;;;;;;;;;;;12.30;99.90;;;;;;5010039;28;19925;-69
2022/10/02 07:27:07;;;;;;;;;;;12.30;99.90;;;;;;5009866;28;20300;-68
2022/10/02 07:29:47;;;;;;;;;;;12.40;99.90;;;;;;4997172;28;19978;-69
2022/10/02 07:32:32;;;;;;;;;;;12.40;99.90;;;;;;5009565;28;20035;-69
2022/10/02 07:35:03;;;;;;;;;;;12.60;99.90;;;;;;4993393;28;19933;-68
2022/10/02 07:37:35;;;;;;;;;;;12.80;99.90;;;;;;5008841;28;20038;-69
2022/10/02 07:40:19;;;;;;;;;;;13.50;99.90;;;;;;4993507;28;19926;-69
2022/10/02 07:42:59;;;;;;;;;;;14.20;99.90;;;;;;5008847;28;19999;-69
2022/10/02 07:45:26;;;;;;;;;;;14.30;99.90;;;;;;4993117;28;19933;-69
2022/10/02 07:48:04;;;;;;;;;;;14.40;99.90;;;;;;5010710;28;20420;-69
2022/10/02 07:50:42;;;;;;;;;;;14.80;99.90;;;;;;4992855;28;19951;-69
2022/10/02 07:53:30;;;;;;;;;;;15.00;99.90;;;;;;5009239;28;20372;-69
2022/10/02 07:55:56;;;;;;;;;;;15.00;99.90;;;;;;4993125;28;19974;-70
2022/10/02 07:58:30;;;;;;;;;;;14.80;99.90;;;;;;5009147;28;19926;-69
2022/10/02 08:01:00;;;;;;;;;;;14.70;99.90;;;;;;5010096;28;20380;-69
2022/10/02 08:03:41;;;;;;;;;;;14.70;99.90;;;;;;4992338;28;20368;-69
2022/10/02 08:06:07;;;;;;;;;;;14.70;99.90;;;;;;5010414;28;19930;-68
2022/10/02 08:08:39;;;;;;;;;;;14.60;99.90;;;;;;5008948;28;19939;-69
2022/10/02 08:11:07;;;;;;;;;;;14.50;99.90;;;;;;5009075;28;19929;-69
2022/10/02 08:13:38;;;;;;;;;;;14.60;99.90;;;;;;5008966;28;19947;-71
2022/10/02 08:16:05;;;;;;;;;;;14.80;99.90;;;;;;5009149;28;19921;-68
2022/10/02 08:18:59;;;;;;;;;;;15.20;99.90;;;;;;5009312;28;20438;-67
2022/10/02 08:21:25;;;;;;;;;;;16.40;99.90;;;;;;5012575;28;19948;-68
2022/10/02 08:24:01;;;;;;;;;;;17.00;99.90;;;;;;5008890;28;19921;-69
2022/10/02 08:26:33;;;;;;;;;;;16.80;99.90;;;;;;5009718;28;20024;-68
2022/10/02 08:29:04;;;;;;;;;;;16.40;99.90;;;;;;5008910;28;19930;-69
2022/10/02 08:31:33;;;;;;;;;;;16.00;99.90;;;;;;4992689;28;19925;-68
2022/10/02 08:34:19;;;;;;;;;;;15.60;99.90;;;;;;5008610;28;20012;-68
2022/10/02 08:36:51;;;;;;;;;;;15.40;99.90;;;;;;5008158;28;19933;-70
2022/10/02 08:39:26;;;;;;;;;;;15.10;99.90;;;;;;5007993;28;20407;-70
2022/10/02 08:42:10;;;;;;;;;;;15.00;99.90;;;;;;5008203;28;19925;-69
2022/10/02 08:44:36;;;;;;;;;;;14.80;99.90;;;;;;5008195;28;20289;-68
2022/10/02 08:47:21;;;;;;;;;;;14.70;99.90;;;;;;5009558;28;19925;-68
2022/10/02 08:50:18;;;;;;;;;;;14.60;99.90;;;;;;5007790;28;19936;-67
2022/10/02 08:53:01;;;;;;;;;;;14.60;99.90;;;;;;5008481;28;19976;-67
2022/10/02 08:55:30;;;;;;;;;;;14.40;99.90;;;;;;5009401;28;19929;-71
2022/10/02 08:57:55;;;;;;;;;;;14.10;99.90;;;;;;5008635;28;19973;-70
2022/10/02 09:00:30;;;;;;;;;;;14.20;99.90;;;;;;5008226;28;19961;-68
2022/10/02 09:03:11;;;;;;;;;;;14.10;99.90;;;;;;4992195;28;19926;-67
2022/10/02 09:05:56;;;;;;;;;;;14.10;99.90;;;;;;5011903;28;19933;-68
2022/10/02 09:08:22;;;;;;;;;;;14.00;99.90;;;;;;5011779;28;20352;-69
2022/10/02 09:11:10;;;;;;;;;;;13.90;99.90;;;;;;5011782;28;19933;-68
2022/10/02 09:13:51;;;;;;;;;;;14.00;99.90;;;;;;5011605;28;20295;-69
2022/10/02 09:16:28;;;;;;;;;;;14.00;99.90;;;;;;5011821;28;19929;-69
2022/10/02 09:19:12;;;;;;;;;;;14.00;99.90;;;;;;5012993;28;20006;-66
2022/10/02 09:21:51;;;;;;;;;;;14.10;99.90;;;;;;5012310;28;19926;-65
2022/10/02 09:24:35;;;;;;;;;;;14.10;99.90;;;;;;5011770;28;20020;-67
2022/10/02 09:27:11;;;;;;;;;;;14.10;99.90;;;;;;5012303;28;19926;-67
2022/10/02 09:29:47;;;;;;;;;;;14.20;99.90;;;;;;5010798;28;19995;-68
2022/10/02 09:32:28;;;;;;;;;;;14.30;99.90;;;;;;5011500;28;19925;-67
2022/10/02 09:34:54;;;;;;;;;;;14.40;99.90;;;;;;5012242;28;19933;-67
2022/10/02 09:37:27;;;;;;;;;;;14.50;99.90;;;;;;5011200;28;19925;-68
2022/10/02 09:40:11;;;;;;;;;;;14.70;99.90;;;;;;5011077;28;19925;-67
2022/10/02 09:42:49;;;;;;;;;;;14.80;99.90;;;;;;5011845;28;19929;-66
2022/10/02 09:45:18;;;;;;;;;;;14.90;99.90;;;;;;5012179;28;20268;-69
2022/10/02 09:48:03;;;;;;;;;;;15.00;99.90;;;;;;5010904;28;19971;-66
2022/10/02 09:50:45;;;;;;;;;;;15.20;99.90;;;;;;5011967;28;19932;-68
2022/10/02 09:53:29;;;;;;;;;;;15.20;99.90;;;;;;5011083;28;19925;-67
2022/10/02 09:55:55;;;;;;;;;;;15.40;99.90;;;;;;5011567;28;19933;-66
2022/10/02 09:58:48;;;;;;;;;;;15.50;99.90;;;;;;5010648;28;19930;-69
2022/10/02 10:01:24;;;;;;;;;;;15.50;99.90;;;;;;5011897;28;19977;-69
2022/10/02 10:04:11;;;;;;;;;;;15.60;99.90;;;;;;5003098;28;20436;-67
2022/10/02 10:06:55;;;;;;;;;;;15.70;99.90;;;;;;5006580;28;20289;-67
2022/10/02 10:09:38;;;;;;;;;;;15.80;99.90;;;;;;4989279;28;20020;-68
2022/10/02 10:12:09;;;;;;;;;;;15.90;99.90;;;;;;5005547;28;19926;-69
2022/10/02 10:14:35;;;;;;;;;;;15.90;99.90;;;;;;4987779;28;20017;-68
2022/10/02 10:17:04;;;;;;;;;;;15.90;99.90;;;;;;4990695;28;19956;-67
2022/10/02 10:19:31;;;;;;;;;;;15.90;99.90;;;;;;5008791;28;19980;-72
2022/10/02 10:22:16;;;;;;;;;;;15.80;99.90;;;;;;5005741;28;19929;-68
2022/10/02 10:24:45;;;;;;;;;;;15.70;99.90;;;;;;5006389;28;19926;-66
2022/10/02 10:27:10;;;;;;;;;;;15.70;99.90;;;;;;5007480;28;20356;-67
2022/10/02 10:29:44;;;;;;;;;;;15.70;99.90;;;;;;5007386;28;19951;-65
2022/10/02 10:32:21;;;;;;;;;;;15.80;99.90;;;;;;5010218;28;20291;-66
2022/10/02 10:35:05;;;;;;;;;;;15.80;99.90;;;;;;5010274;28;19984;-69
2022/10/02 10:40:24;;;;;;;;;;;15.90;99.90;;;;;;5010683;28;19944;-69
2022/10/02 10:42:58;;;;;;;;;;;15.80;99.90;;;;;;5008255;28;19933;-67
2022/10/02 10:45:43;;;;;;;;;;;15.70;99.90;;;;;;5011378;28;19929;-69
2022/10/02 10:48:08;;;;;;;;;;;15.80;99.90;;;;;;5010425;28;20012;-69
2022/10/02 10:50:35;;;;;;;;;;;15.70;99.90;;;;;;5009821;28;20001;-70
2022/10/02 10:53:06;;;;;;;;;;;15.60;99.90;;;;;;5010351;28;20006;-66
2022/10/02 10:55:39;;;;;;;;;;;15.60;99.90;;;;;;5010028;28;20277;-66
2022/10/02 10:58:20;;;;;;;;;;;15.70;99.90;;;;;;5010643;28;19926;-68
2022/10/02 11:00:59;;;;;;;;;;;15.80;99.90;;;;;;5009171;28;19925;-67
2022/10/02 11:03:44;;;;;;;;;;;15.90;99.90;;;;;;5010138;28;19925;-68
2022/10/02 11:06:21;;;;;;;;;;;15.90;99.90;;;;;;5009645;28;19925;-67
2022/10/02 11:09:03;;;;;;;;;;;16.00;99.90;;;;;;5010244;28;19975;-68
2022/10/02 11:11:58;;;;;;;;;;;16.10;99.90;;;;;;5009807;28;19976;-67
2022/10/02 11:14:40;;;;;;;;;;;16.20;99.90;;;;;;4997456;28;19926;-68
2022/10/02 11:17:15;;;;;;;;;;;16.30;99.90;;;;;;5010794;28;19926;-67
2022/10/02 11:19:41;;;;;;;;;;;16.40;99.90;;;;;;5009491;28;19926;-67
2022/10/02 11:22:25;;;;;;;;;;;16.40;99.90;;;;;;5009577;28;19994;-68
2022/10/02 11:25:11;;;;;;;;;;;16.50;99.90;;;;;;5009091;28;19926;-67
2022/10/02 11:27:51;;;;;;;;;;;16.60;99.90;;;;;;5009717;28;19932;-67
2022/10/02 11:30:23;;;;;;;;;;;16.70;99.90;;;;;;5009343;28;19936;-66
2022/10/02 11:33:02;;;;;;;;;;;16.80;99.90;;;;;;5009014;28;19937;-67
2022/10/02 11:35:31;;;;;;;;;;;16.80;99.90;;;;;;5009690;28;19925;-67
2022/10/02 11:38:00;;;;;;;;;;;16.90;99.90;;;;;;5008819;28;19944;-66
2022/10/02 11:40:34;;;;;;;;;;;17.00;99.90;;;;;;5009981;28;19925;-67
2022/10/02 11:43:16;;;;;;;;;;;17.10;99.90;;;;;;5008650;28;19925;-65
2022/10/02 11:45:48;;;;;;;;;;;17.10;99.90;;;;;;5009948;28;19925;-69
2022/10/02 11:48:22;;;;;;;;;;;17.10;99.90;;;;;;4992686;28;19925;-66
2022/10/02 11:51:08;;;;;;;;;;;17.10;99.90;;;;;;4992456;28;20360;-66
2022/10/02 11:53:34;;;;;;;;;;;17.00;99.90;;;;;;5008944;28;19998;-66
2022/10/02 11:56:07;;;;;;;;;;;17.00;99.90;;;;;;4992001;28;20329;-65
2022/10/02 11:59:08;;;;;;;;;;;17.00;99.90;;;;;;5004828;28;20000;-71
2022/10/02 12:01:34;;;;;;;;;;;17.00;99.90;;;;;;5027608;28;19925;-65
2022/10/02 12:04:17;;;;;;;;;;;17.10;99.90;;;;;;5008072;28;19932;-69
2022/10/02 12:07:03;;;;;;;;;;;17.10;99.90;;;;;;5009732;28;20279;-71
2022/10/02 12:09:29;;;;;;;;;;;17.20;99.90;;;;;;4992837;28;20420;-68
2022/10/02 12:12:31;;;;;;;;;;;17.20;99.90;;;;;;5008598;28;19976;-65
2022/10/02 12:15:00;;;;;;;;;;;17.10;99.90;;;;;;5029508;28;19936;-65
2022/10/02 12:17:32;;;;;;;;;;;17.00;99.90;;;;;;5008892;28;20022;-66
2022/10/02 12:28:45;;;;;;;;;;;16.90;99.90;;;;;;5008554;28;19948;-67
2022/10/02 12:31:11;;;;;;;;;;;16.90;99.90;;;;;;5007879;28;20383;-67
2022/10/02 12:33:43;;;;;;;;;;;16.90;99.90;;;;;;5008550;28;19929;-66
2022/10/02 12:36:20;;;;;;;;;;;17.00;99.90;;;;;;5007277;28;20558;-67
2022/10/02 12:39:02;;;;;;;;;;;17.00;99.90;;;;;;5008634;28;19979;-69
2022/10/02 12:41:32;;;;;;;;;;;17.10;99.90;;;;;;5008473;28;19987;-66
2022/10/02 12:44:17;;;;;;;;;;;17.00;99.90;;;;;;4991670;28;20033;-66
2022/10/02 12:47:03;;;;;;;;;;;17.00;99.90;;;;;;5008297;28;19969;-66
2022/10/02 12:49:35;;;;;;;;;;;16.90;99.90;;;;;;5007976;28;19932;-65
2022/10/02 12:52:22;;;;;;;;;;;16.80;99.90;;;;;;5008894;28;20426;-66
2022/10/02 12:54:51;;;;;;;;;;;16.80;99.90;;;;;;5008264;28;20016;-65
2022/10/02 13:00:17;;;;;;;;;;;16.70;99.90;;;;;;5008773;28;20398;-66
2022/10/02 13:02:55;;;;;;;;;;;16.70;99.90;;;;;;5009418;28;19925;-68
2022/10/02 13:05:39;;;;;;;;;;;16.70;99.90;;;;;;5008545;28;19929;-66
2022/10/02 13:08:22;;;;;;;;;;;16.60;99.90;;;;;;5008023;28;19933;-66
2022/10/02 13:10:58;;;;;;;;;;;16.40;99.90;;;;;;5009343;28;19929;-65
2022/10/02 13:13:35;;;;;;;;;;;16.30;99.90;;;;;;5009462;28;20002;-66
2022/10/02 13:16:13;;;;;;;;;;;16.20;99.90;;;;;;5008092;28;19925;-66
2022/10/02 13:19:00;;;;;;;;;;;16.20;99.90;;;;;;5009461;28;19969;-65
2022/10/02 13:21:45;;;;;;;;;;;16.20;99.90;;;;;;5008273;28;19972;-66
2022/10/02 13:24:11;;;;;;;;;;;16.20;99.90;;;;;;5008160;28;19932;-68
2022/10/02 13:26:50;;;;;;;;;;;16.30;99.90;;;;;;5008379;28;20103;-66
2022/10/02 13:29:16;;;;;;;;;;;16.30;99.90;;;;;;5008037;28;20333;-66
2022/10/02 13:31:48;;;;;;;;;;;16.30;99.90;;;;;;5008038;28;19979;-66
2022/10/02 13:34:24;;;;;;;;;;;16.30;99.90;;;;;;5007754;28;19972;-68
2022/10/02 13:37:07;;;;;;;;;;;16.30;99.90;;;;;;5008157;28;19932;-66
2022/10/02 13:39:39;;;;;;;;;;;16.30;99.90;;;;;;5008121;28;19925;-67
2022/10/02 13:42:08;;;;;;;;;;;16.20;99.90;;;;;;5007515;28;19929;-65
2022/10/02 13:44:36;;;;;;;;;;;16.20;99.90;;;;;;5007927;28;19926;-67
2022/10/02 13:47:23;;;;;;;;;;;16.30;99.90;;;;;;5007767;28;19972;-66
2022/10/02 13:49:52;;;;;;;;;;;16.40;99.90;;;;;;5010179;28;19983;-67
2022/10/02 13:52:37;;;;;;;;;;;16.50;99.90;;;;;;5011947;28;19932;-67
2022/10/02 13:55:09;;;;;;;;;;;16.50;99.90;;;;;;4994394;28;19925;-67
2022/10/02 13:57:50;;;;;;;;;;;16.40;99.90;;;;;;5011842;28;20019;-69
2022/10/02 14:00:34;;;;;;;;;;;16.30;99.90;;;;;;5010619;28;20338;-68
2022/10/02 14:03:18;;;;;;;;;;;16.20;99.90;;;;;;5010650;28;19948;-67
2022/10/02 14:06:11;;;;;;;;;;;16.20;99.90;;;;;;5011038;28;19930;-67
2022/10/02 14:08:48;;;;;;;;;;;16.10;99.90;;;;;;5010912;28;19927;-67
2022/10/02 14:11:37;;;;;;;;;;;16.20;99.90;;;;;;5010763;28;19925;-68
2022/10/02 14:14:03;;;;;;;;;;;16.10;99.90;;;;;;5013879;28;19933;-67
2022/10/02 14:16:37;;;;;;;;;;;16.10;99.90;;;;;;5010838;28;20284;-67
2022/10/02 14:19:21;;;;;;;;;;;16.10;99.90;;;;;;5010529;28;19936;-67
2022/10/02 14:21:54;;;;;;;;;;;16.10;99.90;;;;;;5010720;28;19943;-67
2022/10/02 14:24:59;;;;;;;;;;;16.00;99.90;;;;;;4993941;28;19926;-67
2022/10/02 14:27:43;;;;;;;;;;;16.10;99.90;;;;;;5010668;28;19933;-67
2022/10/02 14:30:28;;;;;;;;;;;16.10;99.90;;;;;;5010426;28;20403;-66
2022/10/02 14:33:16;;;;;;;;;;;16.20;99.90;;;;;;5010652;28;20347;-66
2022/10/02 14:35:48;;;;;;;;;;;16.30;99.90;;;;;;5010675;28;20012;-67
2022/10/02 14:38:33;;;;;;;;;;;16.30;99.90;;;;;;4994133;28;20395;-66
2022/10/02 14:41:06;;;;;;;;;;;16.20;99.90;;;;;;5010419;28;19980;-66
2022/10/02 14:43:32;;;;;;;;;;;16.20;99.90;;;;;;5009965;28;19968;-67
2022/10/02 14:46:10;;;;;;;;;;;16.30;99.90;;;;;;5010443;28;19932;-67
2022/10/02 14:48:47;;;;;;;;;;;16.30;99.90;;;;;;4994125;28;20273;-66
2022/10/02 14:51:35;;;;;;;;;;;16.30;99.90;;;;;;4993374;28;19937;-66
2022/10/02 14:54:22;;;;;;;;;;;16.20;99.90;;;;;;5010000;28;19932;-72
2022/10/02 14:56:52;;;;;;;;;;;16.10;99.90;;;;;;5010816;28;19925;-67
2022/10/02 14:59:36;;;;;;;;;;;16.00;99.90;;;;;;5009435;28;19933;-67
2022/10/02 15:02:07;;;;;;;;;;;15.90;99.90;;;;;;5009290;28;20161;-68
2022/10/02 15:04:41;;;;;;;;;;;15.80;99.90;;;;;;5009740;28;19933;-67
2022/10/02 15:07:09;;;;;;;;;;;15.60;99.90;;;;;;5009273;28;19925;-68
2022/10/02 15:09:41;;;;;;;;;;;15.60;99.90;;;;;;5009763;28;20408;-67
2022/10/02 15:12:24;;;;;;;;;;;15.60;99.90;;;;;;5010383;28;19926;-72
2022/10/02 15:15:08;;;;;;;;;;;15.50;99.90;;;;;;5009403;28;20391;-68